Time;durP1;ratioP1;P1;durP2;ratioP2;P2;SDS_P1;SDS_P2;PMS_P1;PMS_P2;Temp;Humidity;BMP_temperature;BMP_pressure;BME280_temperature;BME280_humidity;BME280_pressure;Samples;Min_cycle;Max_cycle;Signal;HPM_P1;HPM_P2
2024/03/05 16:14:44;;;;;;;3.75;1.50;;;22.10;34.70;;;;;;5084331;28;20547;-63
2024/03/05 16:17:12;;;;;;;2.92;1.63;;;22.10;35.20;;;;;;5084622;28;20259;-66
2024/03/05 16:19:41;;;;;;;2.50;1.30;;;22.20;35.40;;;;;;5085861;28;20694;-64
2024/03/05 16:22:08;;;;;;;4.97;1.88;;;22.20;35.30;;;;;;5081450;28;20225;-67
2024/03/05 16:24:35;;;;;;;4.72;1.48;;;22.30;35.30;;;;;;5076710;28;20217;-68
2024/03/05 16:27:02;;;;;;;3.28;1.60;;;22.40;35.30;;;;;;5081224;28;20257;-63
2024/03/05 16:29:30;;;;;;;4.38;1.40;;;22.40;35.10;;;;;;5081791;28;20198;-63
2024/03/05 16:31:59;;;;;;;3.60;1.65;;;22.50;35.20;;;;;;5077484;28;20634;-63
2024/03/05 16:34:26;;;;;;;5.18;1.20;;;22.50;35.10;;;;;;5080811;28;20214;-71
2024/03/05 16:36:53;;;;;;;3.03;1.67;;;22.60;35.00;;;;;;5084888;28;20222;-62
2024/03/05 16:39:22;;;;;;;7.47;2.58;;;22.60;35.60;;;;;;5083780;28;20555;-74
2024/03/05 16:41:49;;;;;;;3.25;2.40;;;22.70;34.80;;;;;;5050440;28;20703;-64
2024/03/05 16:44:16;;;;;;;9.13;3.67;;;22.80;34.90;;;;;;5083495;28;20802;-68
2024/03/05 16:46:45;;;;;;;6.65;4.20;;;22.80;34.70;;;;;;5084450;28;20218;-63
2024/03/05 16:49:13;;;;;;;9.18;3.20;;;22.90;34.90;;;;;;5061593;28;20199;-68
2024/03/05 16:51:43;;;;;;;16.33;11.65;;;22.90;34.80;;;;;;5078058;28;20298;-63
2024/03/05 16:54:10;;;;;;;11.90;6.00;;;22.90;34.80;;;;;;5081754;28;20210;-68
2024/03/05 16:56:37;;;;;;;10.48;8.75;;;22.90;34.80;;;;;;5083572;28;20731;-71
2024/03/05 16:59:07;;;;;;;9.65;7.25;;;23.00;34.80;;;;;;5077929;28;20294;-63
2024/03/05 17:01:33;;;;;;;7.55;5.43;;;23.10;34.70;;;;;;5068989;28;20215;-66
2024/03/05 17:04:03;;;;;;;6.50;4.47;;;23.10;34.60;;;;;;5085810;28;20178;-66
2024/03/05 17:06:31;;;;;;;9.80;4.20;;;23.10;34.40;;;;;;5079304;28;20207;-63
2024/03/05 17:08:59;;;;;;;7.05;3.08;;;23.20;34.50;;;;;;5075996;28;20195;-62
2024/03/05 17:11:28;;;;;;;4.38;2.67;;;23.10;35.20;;;;;;5083448;28;20229;-62
2024/03/05 17:13:55;;;;;;;9.82;3.05;;;23.10;34.50;;;;;;5087422;28;20691;-68
2024/03/05 17:16:22;;;;;;;7.30;2.47;;;23.00;34.60;;;;;;5088463;28;20204;-71
2024/03/05 17:18:50;;;;;;;6.10;2.35;;;23.00;34.60;;;;;;5088932;28;20301;-61
2024/03/05 17:21:17;;;;;;;6.35;2.15;;;23.00;34.50;;;;;;5088581;28;20293;-71
2024/03/05 17:23:46;;;;;;;6.00;2.25;;;22.90;34.30;;;;;;5088179;28;20633;-68
2024/03/05 17:26:15;;;;;;;4.57;2.17;;;22.90;34.20;;;;;;5074294;28;20594;-61
2024/03/05 17:28:42;;;;;;;5.63;1.83;;;22.90;34.30;;;;;;5074772;28;20293;-69
2024/03/05 17:31:09;;;;;;;5.88;2.50;;;22.80;34.10;;;;;;5074611;28;20649;-62
2024/03/05 17:33:36;;;;;;;4.60;1.85;;;22.80;34.20;;;;;;5074697;28;20257;-61
2024/03/05 17:36:04;;;;;;;6.38;2.22;;;22.80;34.20;;;;;;5075045;28;20215;-62
2024/03/05 17:38:32;;;;;;;7.63;1.90;;;22.80;34.20;;;;;;5074941;28;20219;-71
2024/03/05 17:41:02;;;;;;;9.25;1.95;;;22.70;34.70;;;;;;5074947;28;20191;-63
2024/03/05 17:43:30;;;;;;;4.82;2.30;;;22.70;34.10;;;;;;5074779;28;20811;-67
2024/03/05 17:45:57;;;;;;;6.80;2.03;;;22.70;34.20;;;;;;5074614;28;20191;-62
2024/03/05 17:48:24;;;;;;;5.57;2.05;;;22.60;34.10;;;;;;5074991;28;20254;-70
2024/03/05 17:50:50;;;;;;;5.60;2.03;;;22.60;34.10;;;;;;5074694;28;20209;-68
2024/03/05 17:53:17;;;;;;;6.30;2.13;;;22.50;34.00;;;;;;5074719;28;20306;-71
2024/03/05 17:55:44;;;;;;;5.40;1.77;;;22.60;34.10;;;;;;5074581;28;20333;-68
2024/03/05 17:58:13;;;;;;;4.30;1.92;;;22.50;34.00;;;;;;5074530;28;20688;-71
2024/03/05 18:00:45;;;;;;;4.57;1.83;;;22.50;34.00;;;;;;5074440;28;20205;-70
2024/03/05 18:03:12;;;;;;;5.38;1.65;;;22.50;34.00;;;;;;5074435;28;20241;-71
2024/03/05 18:05:39;;;;;;;5.75;1.65;;;22.50;34.00;;;;;;5074078;28;20197;-61
2024/03/05 18:08:06;;;;;;;4.60;1.65;;;22.50;34.10;;;;;;5074504;28;20301;-61
2024/03/05 18:10:34;;;;;;;6.57;2.20;;;22.50;34.10;;;;;;5074467;28;20278;-62
2024/03/05 18:13:02;;;;;;;5.38;1.77;;;22.50;34.10;;;;;;5073686;28;20238;-70
2024/03/05 18:15:30;;;;;;;4.93;1.80;;;22.40;34.00;;;;;;5073958;28;20218;-72
2024/03/05 18:17:57;;;;;;;5.93;2.00;;;22.40;34.00;;;;;;5074348;28;20225;-72
2024/03/05 18:20:28;;;;;;;4.68;1.92;;;22.40;34.00;;;;;;5074198;28;20197;-61
2024/03/05 18:22:55;;;;;;;4.55;1.90;;;22.40;34.10;;;;;;5074175;28;20214;-61
2024/03/05 18:25:22;;;;;;;5.05;1.75;;;22.40;34.00;;;;;;5074086;28;20276;-62
2024/03/05 18:27:54;;;;;;;5.82;2.00;;;22.30;34.00;;;;;;5073678;28;20225;-71
2024/03/05 18:30:24;;;;;;;4.55;2.10;;;22.40;34.10;;;;;;5073792;28;20219;-72
2024/03/05 18:32:52;;;;;;;3.75;2.30;;;22.30;34.10;;;;;;5073561;28;20236;-71
2024/03/05 18:35:21;;;;;;;4.30;2.03;;;22.30;34.10;;;;;;5073477;28;20214;-71
2024/03/05 18:37:49;;;;;;;5.80;1.98;;;22.30;34.10;;;;;;5072819;28;20215;-61
2024/03/05 18:40:15;;;;;;;4.47;1.88;;;22.30;34.10;;;;;;5073748;28;20274;-62
2024/03/05 18:42:45;;;;;;;8.93;2.28;;;22.30;34.10;;;;;;5073871;28;20237;-63
2024/03/05 18:45:15;;;;;;;7.35;2.30;;;22.30;34.10;;;;;;5073128;28;20656;-65
2024/03/05 18:47:42;;;;;;;6.25;2.10;;;22.30;34.10;;;;;;5073358;28;20223;-72
2024/03/05 18:50:11;;;;;;;6.93;2.17;;;22.20;34.10;;;;;;5073558;28;20197;-69
2024/03/05 18:52:37;;;;;;;4.20;2.10;;;22.20;34.10;;;;;;5073032;28;20658;-68
2024/03/05 18:55:06;;;;;;;6.90;2.35;;;22.20;34.10;;;;;;5073456;28;20215;-70
2024/03/05 18:57:33;;;;;;;8.82;2.20;;;22.20;34.10;;;;;;5073227;28;20802;-65
2024/03/05 19:00:00;;;;;;;4.55;1.92;;;22.20;34.20;;;;;;5072937;28;20828;-71
2024/03/05 19:02:27;;;;;;;3.92;1.90;;;22.20;34.20;;;;;;5073261;28;20246;-63
2024/03/05 19:04:54;;;;;;;6.53;2.42;;;22.20;34.10;;;;;;5073234;28;20190;-68
2024/03/05 19:07:23;;;;;;;5.40;2.00;;;22.20;34.10;;;;;;5073069;28;20225;-70
2024/03/05 19:09:50;;;;;;;6.80;2.45;;;22.20;34.20;;;;;;5073213;28;20233;-71
2024/03/05 19:12:17;;;;;;;4.07;2.10;;;22.20;34.20;;;;;;5073066;28;20262;-71
2024/03/05 19:14:46;;;;;;;5.22;2.50;;;22.20;34.20;;;;;;5072829;28;20305;-62
2024/03/05 19:17:12;;;;;;;6.68;2.28;;;22.20;34.20;;;;;;5073509;28;20244;-70
2024/03/05 19:19:39;;;;;;;5.35;2.25;;;22.10;34.80;;;;;;5073064;28;20269;-71
2024/03/05 19:22:08;;;;;;;7.85;2.08;;;22.20;34.20;;;;;;5071904;28;20306;-62
2024/03/05 19:24:36;;;;;;;5.78;1.85;;;22.10;34.80;;;;;;5072543;28;20190;-71
2024/03/05 19:27:03;;;;;;;7.07;2.42;;;22.10;34.10;;;;;;5072867;28;20217;-71
2024/03/05 19:29:30;;;;;;;4.43;2.05;;;22.10;34.20;;;;;;5072653;28;20198;-62
2024/03/05 19:31:58;;;;;;;5.75;2.10;;;22.10;34.20;;;;;;5072425;28;20215;-71
2024/03/05 19:34:25;;;;;;;5.43;2.10;;;22.10;34.20;;;;;;5072633;28;20583;-71
2024/03/05 19:36:52;;;;;;;5.10;2.33;;;22.10;34.20;;;;;;5072515;28;20191;-68
2024/03/05 19:39:20;;;;;;;4.15;2.45;;;22.10;34.20;;;;;;5072694;28;20194;-71
2024/03/05 19:41:48;;;;;;;6.57;2.60;;;22.10;34.20;;;;;;5072968;28;20187;-72
2024/03/05 19:44:15;;;;;;;9.20;3.13;;;22.10;34.20;;;;;;5071248;28;20194;-62
2024/03/05 19:46:43;;;;;;;7.45;2.83;;;22.10;34.30;;;;;;5072241;28;20641;-71
2024/03/05 19:49:10;;;;;;;6.78;2.45;;;22.00;34.10;;;;;;5072253;28;20190;-69
2024/03/05 19:51:37;;;;;;;7.70;2.88;;;22.10;34.20;;;;;;5071484;28;20194;-66
2024/03/05 19:54:08;;;;;;;5.60;2.63;;;22.10;34.20;;;;;;5072328;28;20210;-70
2024/03/05 19:56:39;;;;;;;6.30;2.70;;;22.00;34.10;;;;;;5072521;28;20182;-71
2024/03/05 19:59:07;;;;;;;6.88;3.03;;;22.10;34.30;;;;;;5071086;28;20573;-70
2024/03/05 20:01:34;;;;;;;6.80;2.92;;;22.10;34.30;;;;;;5072273;28;20187;-71
2024/03/05 20:04:01;;;;;;;7.15;3.10;;;22.10;34.30;;;;;;5072005;28;20301;-71
2024/03/05 20:06:28;;;;;;;5.25;2.95;;;22.00;34.20;;;;;;5072259;28;20193;-62
2024/03/05 20:08:55;;;;;;;5.55;2.92;;;22.10;34.30;;;;;;5072569;28;20214;-71
2024/03/05 20:11:22;;;;;;;6.65;3.65;;;22.00;34.20;;;;;;5072114;28;20639;-71
2024/03/05 20:13:50;;;;;;;9.68;3.75;;;22.00;34.20;;;;;;5072034;28;20520;-63
2024/03/05 20:16:19;;;;;;;7.43;3.35;;;22.00;34.20;;;;;;5072281;28;20202;-63
2024/03/05 20:18:46;;;;;;;7.65;3.22;;;22.00;34.20;;;;;;5072510;28;20225;-65
2024/03/05 20:21:13;;;;;;;5.88;3.33;;;22.00;34.20;;;;;;5072306;28;20187;-69
2024/03/05 20:23:42;;;;;;;7.28;3.20;;;22.00;34.20;;;;;;5072353;28;20218;-62
2024/03/05 20:26:09;;;;;;;10.40;3.78;;;22.00;34.30;;;;;;5071910;28;20229;-70
2024/03/05 20:28:36;;;;;;;5.95;3.40;;;22.00;34.30;;;;;;5072078;28;20759;-65
2024/03/05 20:31:03;;;;;;;8.82;3.80;;;22.00;34.30;;;;;;5072091;28;20183;-61
2024/03/05 20:33:32;;;;;;;5.95;3.58;;;21.90;34.20;;;;;;5072039;28;20778;-61
2024/03/05 20:35:59;;;;;;;7.72;3.67;;;21.90;34.20;;;;;;5071773;28;20770;-71
2024/03/05 20:38:27;;;;;;;7.70;4.22;;;21.90;34.20;;;;;;5072008;28;20217;-68
2024/03/05 20:40:53;;;;;;;8.57;4.03;;;21.90;34.30;;;;;;5072083;28;20230;-70
2024/03/05 20:43:19;;;;;;;9.65;4.22;;;21.90;34.20;;;;;;5072266;28;20221;-70
2024/03/05 20:45:46;;;;;;;7.55;4.05;;;21.90;34.20;;;;;;5072139;28;20560;-68
2024/03/05 20:48:13;;;;;;;8.13;4.25;;;21.90;34.20;;;;;;5072211;28;20220;-70
2024/03/05 20:50:41;;;;;;;10.75;4.82;;;21.90;34.20;;;;;;5072332;28;20190;-62
2024/03/05 20:53:09;;;;;;;8.68;4.40;;;21.90;34.20;;;;;;5071965;28;20237;-63
2024/03/05 20:55:36;;;;;;;10.75;5.03;;;21.90;34.20;;;;;;5071848;28;20210;-62
2024/03/05 20:58:03;;;;;;;10.13;4.78;;;21.90;34.20;;;;;;5072041;28;20221;-71
2024/03/05 21:00:32;;;;;;;10.93;4.80;;;21.90;34.40;;;;;;5073796;28;20244;-66
2024/03/05 21:02:58;;;;;;;9.85;5.07;;;21.90;34.20;;;;;;5075361;28;20700;-71
2024/03/05 21:05:26;;;;;;;10.13;5.40;;;21.90;34.20;;;;;;5075273;28;20645;-67
2024/03/05 21:07:54;;;;;;;10.63;5.07;;;21.90;34.20;;;;;;5075370;28;20222;-64
2024/03/05 21:10:22;;;;;;;9.70;5.03;;;21.90;34.20;;;;;;5075550;28;20194;-70
2024/03/05 21:12:49;;;;;;;10.40;5.25;;;21.90;34.20;;;;;;5075141;28;20676;-65
2024/03/05 21:15:15;;;;;;;10.52;5.57;;;21.90;34.90;;;;;;5075080;28;20637;-63
2024/03/05 21:17:43;;;;;;;10.20;5.38;;;21.90;34.20;;;;;;5075614;28;20214;-68
2024/03/05 21:20:11;;;;;;;10.13;5.45;;;21.90;34.20;;;;;;5075071;28;20198;-65
2024/03/05 21:22:40;;;;;;;12.02;5.68;;;21.90;34.20;;;;;;5075161;28;20222;-65
2024/03/05 21:25:09;;;;;;;12.95;5.80;;;21.90;34.30;;;;;;5074956;28;20277;-69
2024/03/05 21:27:38;;;;;;;9.38;5.85;;;21.90;34.20;;;;;;5075249;28;20688;-61
2024/03/05 21:30:06;;;;;;;11.90;5.80;;;21.90;34.30;;;;;;5074647;28;20183;-65
2024/03/05 21:32:35;;;;;;;12.43;6.13;;;21.90;34.20;;;;;;5074740;28;20551;-61
2024/03/05 21:35:05;;;;;;;9.95;5.72;;;21.90;34.20;;;;;;5074876;28;20279;-61
2024/03/05 21:37:32;;;;;;;10.40;6.00;;;21.90;34.20;;;;;;5074788;28;20223;-68
2024/03/05 21:39:59;;;;;;;11.98;5.65;;;21.90;34.20;;;;;;5075024;28;20194;-63
2024/03/05 21:42:27;;;;;;;11.10;5.32;;;21.80;34.10;;;;;;5074990;28;20233;-68
2024/03/05 21:44:54;;;;;;;10.52;6.05;;;21.80;34.10;;;;;;5074846;28;20183;-70
2024/03/05 21:47:21;;;;;;;11.90;5.70;;;21.80;34.10;;;;;;5074920;28;20226;-70
2024/03/05 21:49:48;;;;;;;11.88;6.15;;;21.90;34.20;;;;;;5075165;28;20194;-63
2024/03/05 21:52:15;;;;;;;10.27;5.88;;;21.90;35.00;;;;;;5074187;28;20607;-70
2024/03/05 21:54:42;;;;;;;10.27;5.40;;;21.90;34.20;;;;;;5074753;28;20237;-64
2024/03/05 21:57:09;;;;;;;11.93;6.07;;;21.80;34.10;;;;;;5074706;28;20229;-71
2024/03/05 21:59:37;;;;;;;10.98;5.90;;;21.80;34.10;;;;;;5074449;28;20269;-72
2024/03/05 22:02:06;;;;;;;10.70;5.60;;;21.80;34.10;;;;;;5074160;28;20566;-65
2024/03/05 22:04:33;;;;;;;9.50;5.43;;;21.80;34.10;;;;;;5074456;28;20206;-72
2024/03/05 22:07:00;;;;;;;9.52;5.82;;;21.80;34.10;;;;;;5074231;28;20191;-62
2024/03/05 22:09:26;;;;;;;9.70;6.30;;;21.80;34.10;;;;;;5074258;28;20183;-71
2024/03/05 22:11:53;;;;;;;12.07;5.80;;;21.80;34.10;;;;;;5074293;28;20206;-66
2024/03/05 22:14:20;;;;;;;13.25;6.07;;;21.80;34.10;;;;;;5073943;28;20237;-63
2024/03/05 22:16:48;;;;;;;10.98;5.80;;;21.80;34.10;;;;;;5073943;28;20195;-63
2024/03/05 22:19:16;;;;;;;12.55;6.22;;;21.80;34.10;;;;;;5074256;28;20186;-68
2024/03/05 22:21:43;;;;;;;11.15;5.75;;;21.80;34.10;;;;;;5074057;28;20191;-70
2024/03/05 22:24:09;;;;;;;10.48;5.75;;;21.80;34.10;;;;;;5074428;28;20219;-65
2024/03/05 22:26:38;;;;;;;9.75;5.53;;;21.80;34.10;;;;;;5073885;28;20191;-62
2024/03/05 22:29:05;;;;;;;10.23;5.40;;;21.80;34.10;;;;;;5074148;28;20247;-71
2024/03/05 22:31:31;;;;;;;14.63;6.47;;;21.80;34.10;;;;;;5073691;28;20197;-66
2024/03/05 22:33:59;;;;;;;11.45;6.00;;;21.80;34.10;;;;;;5074075;28;20219;-65
2024/03/05 22:36:26;;;;;;;12.13;6.38;;;21.80;34.10;;;;;;5073693;28;20221;-61
2024/03/05 22:38:53;;;;;;;13.85;5.78;;;21.80;34.20;;;;;;5073703;28;20589;-68
2024/03/05 22:41:20;;;;;;;14.07;5.95;;;21.80;34.20;;;;;;5073623;28;20193;-72
2024/03/05 22:43:47;;;;;;;9.38;5.70;;;21.80;34.90;;;;;;5073735;28;20230;-71
2024/03/05 22:46:14;;;;;;;10.48;6.25;;;21.80;34.10;;;;;;5073378;28;20648;-71
2024/03/05 22:48:41;;;;;;;10.25;6.00;;;21.70;34.10;;;;;;5073728;28;20595;-68
2024/03/05 22:51:14;;;;;;;11.10;6.07;;;21.80;34.20;;;;;;5073458;28;20560;-71
2024/03/05 22:53:41;;;;;;;12.70;6.43;;;21.80;34.20;;;;;;5073507;28;20211;-70
2024/03/05 22:56:08;;;;;;;12.52;6.75;;;21.80;34.10;;;;;;5073690;28;20234;-66
2024/03/05 22:58:36;;;;;;;11.52;6.20;;;21.80;34.20;;;;;;5073432;28;20219;-70
2024/03/05 23:01:04;;;;;;;12.65;6.57;;;21.70;34.10;;;;;;5073404;28;20201;-61
2024/03/05 23:03:31;;;;;;;11.73;6.47;;;21.70;34.00;;;;;;5073378;28;20237;-62
2024/03/05 23:05:58;;;;;;;11.80;6.50;;;21.70;34.00;;;;;;5073045;28;20277;-70
2024/03/05 23:08:26;;;;;;;9.93;6.45;;;21.70;34.10;;;;;;5073366;28;20360;-72
2024/03/05 23:10:53;;;;;;;9.85;6.13;;;21.70;34.10;;;;;;5073244;28;20187;-71
2024/03/05 23:13:20;;;;;;;10.75;6.75;;;21.70;34.10;;;;;;5072559;28;20245;-70
2024/03/05 23:15:47;;;;;;;13.70;6.85;;;21.70;34.00;;;;;;5073224;28;20226;-71
2024/03/05 23:18:13;;;;;;;11.30;5.60;;;21.70;34.00;;;;;;5073170;28;20301;-63
2024/03/05 23:20:40;;;;;;;12.35;6.47;;;21.70;34.00;;;;;;5072820;28;20286;-62
2024/03/05 23:23:08;;;;;;;11.82;6.38;;;21.70;34.00;;;;;;5072651;28;20305;-63
2024/03/05 23:25:36;;;;;;;8.73;5.38;;;21.80;34.10;;;;;;5072548;28;20199;-61
2024/03/05 23:28:04;;;;;;;8.73;5.60;;;21.80;34.10;;;;;;5072741;28;20222;-68
2024/03/05 23:30:32;;;;;;;10.60;5.95;;;21.80;34.10;;;;;;5072876;28;20209;-72
2024/03/05 23:32:59;;;;;;;8.93;5.78;;;21.80;34.00;;;;;;5072862;28;20225;-66
2024/03/05 23:35:26;;;;;;;9.68;6.20;;;21.80;34.00;;;;;;5072461;28;20217;-61
2024/03/05 23:37:53;;;;;;;10.32;6.00;;;21.80;34.10;;;;;;5072720;28;20219;-68
2024/03/05 23:40:21;;;;;;;10.15;5.50;;;21.80;34.00;;;;;;5072725;28;20190;-70
2024/03/05 23:42:49;;;;;;;9.63;5.50;;;21.80;34.10;;;;;;5072497;28;20215;-71
2024/03/05 23:45:18;;;;;;;11.23;5.30;;;21.70;33.90;;;;;;5072644;28;20187;-68
2024/03/05 23:47:45;;;;;;;12.05;5.63;;;21.80;34.10;;;;;;5072715;28;20298;-71
2024/03/05 23:50:14;;;;;;;11.75;5.22;;;21.80;34.00;;;;;;5072165;28;20198;-70
2024/03/05 23:52:41;;;;;;;10.02;5.38;;;21.70;33.90;;;;;;5072324;28;20305;-71
2024/03/05 23:55:08;;;;;;;10.02;4.95;;;21.70;33.90;;;;;;5072414;28;20305;-63
2024/03/05 23:57:35;;;;;;;10.75;5.47;;;21.70;34.00;;;;;;5072104;28;20302;-70
